Time;durP1;ratioP1;P1;durP2;ratioP2;P2;SDS_P1;SDS_P2;PMS_P1;PMS_P2;Temp;Humidity;BMP_temperature;BMP_pressure;BME280_temperature;BME280_humidity;BME280_pressure;Samples;Min_cycle;Max_cycle;Signal;HPM_P1;HPM_P2
2022/04/23 00:02:12;;;;;;;27.83;12.60;;;;;;;14.20;67.55;100077.81;5034872;28;20079;-80
2022/04/23 00:04:38;;;;;;;26.60;11.27;;;;;;;14.13;67.85;100074.91;5043474;28;20021;-79
2022/04/23 00:07:05;;;;;;;27.58;12.38;;;;;;;14.15;68.02;100063.94;5053439;28;20094;-79
2022/04/23 00:09:31;;;;;;;23.00;11.63;;;;;;;14.19;67.72;100070.72;5054939;28;20029;-79
2022/04/23 00:11:58;;;;;;;25.13;11.13;;;;;;;14.22;67.83;100061.44;5054861;28;20032;-80
2022/04/23 00:14:24;;;;;;;25.48;12.43;;;;;;;14.30;67.61;100061.47;5054746;28;20402;-78
2022/04/23 00:16:53;;;;;;;20.70;10.90;;;;;;;14.28;67.68;100058.91;5054691;28;20027;-80
2022/04/23 00:19:20;;;;;;;27.00;12.43;;;;;;;14.27;67.84;100043.72;5057858;28;20498;-80
2022/04/23 00:21:45;;;;;;;25.23;11.65;;;;;;;14.33;67.30;100050.38;5073788;28;20050;-80
2022/04/23 00:24:11;;;;;;;26.67;13.18;;;;;;;14.43;67.17;100048.38;5074456;28;20463;-80
2022/04/23 00:26:37;;;;;;;21.17;11.75;;;;;;;14.40;67.36;100046.00;5067222;28;20075;-80
2022/04/23 00:29:03;;;;;;;31.95;11.75;;;;;;;14.40;67.51;100067.66;5073730;28;20032;-80
2022/04/23 00:31:28;;;;;;;23.17;12.00;;;;;;;14.34;67.71;100069.13;5088311;28;20025;-81
2022/04/23 00:33:54;;;;;;;24.23;12.00;;;;;;;14.40;67.53;100062.25;5088647;28;20100;-80
2022/04/23 00:36:20;;;;;;;158.95;72.80;;;;;;;14.43;67.56;100056.50;5088605;28;20035;-81
2022/04/23 00:38:49;;;;;;;32.05;17.13;;;;;;;14.38;67.61;100067.78;5075923;28;20032;-80
2022/04/23 00:44:01;;;;;;;30.70;10.77;;;;;;;14.34;67.32;100030.44;5075691;28;20513;-80
2022/04/23 00:46:26;;;;;;;26.95;11.00;;;;;;;14.31;67.63;100052.38;5074541;28;20443;-79
2022/04/23 00:48:52;;;;;;;25.30;12.65;;;;;;;14.37;67.87;100030.09;5074020;28;20515;-79
2022/04/23 00:51:18;;;;;;;25.33;11.43;;;;;;;14.43;67.63;100002.38;5074186;28;20386;-79
2022/04/23 00:53:46;;;;;;;25.55;11.43;;;;;;;14.47;67.33;100009.16;5073468;28;20335;-81
2022/04/23 00:56:12;;;;;;;22.52;10.82;;;;;;;14.49;67.05;99993.63;5073187;28;20032;-79
2022/04/23 00:58:38;;;;;;;25.88;12.10;;;;;;;14.55;67.19;99990.25;5073701;28;20024;-78
2022/04/23 01:01:03;;;;;;;29.15;12.57;;;;;;;14.57;66.56;99988.22;5073939;28;20027;-80
2022/04/23 01:03:30;;;;;;;25.58;13.90;;;;;;;14.48;67.02;99981.09;5066861;28;20025;-80
2022/04/23 01:05:55;;;;;;;21.40;10.95;;;;;;;14.49;66.92;99969.25;5053833;28;20445;-80
2022/04/23 01:08:21;;;;;;;26.00;11.43;;;;;;;14.48;66.64;99967.56;5053669;28;20036;-80
2022/04/23 01:10:48;;;;;;;29.17;11.05;;;;;;;14.49;66.74;99970.13;5054097;28;20375;-80
2022/04/23 01:13:14;;;;;;;25.92;9.95;;;;;;;14.49;66.54;99977.38;5066139;28;20494;-80
2022/04/23 01:16:04;;;;;;;28.52;11.10;;;;;;;14.49;67.02;99972.81;5053541;28;20021;-78
2022/04/23 01:18:30;;;;;;;38.25;11.15;;;;;;;14.38;66.01;99950.63;5033546;28;20038;-78
2022/04/23 01:20:57;;;;;;;27.23;10.65;;;;;;;14.43;66.15;99956.41;5033367;28;20104;-78
2022/04/23 01:23:26;;;;;;;22.02;9.23;;;;;;;14.46;66.09;99965.00;5033364;28;20406;-80
2022/04/23 01:25:54;;;;;;;21.45;9.80;;;;;;;14.52;65.93;99947.28;5056280;28;20406;-80
2022/04/23 01:28:24;;;;;;;29.55;10.60;;;;;;;14.43;65.62;99943.69;5073188;28;20414;-80
2022/04/23 01:30:54;;;;;;;25.50;11.02;;;;;;;14.41;66.08;99940.31;5063081;28;20390;-81
2022/04/23 01:33:20;;;;;;;24.08;11.00;;;;;;;14.46;66.20;99929.00;5061529;28;20033;-79
2022/04/23 01:35:46;;;;;;;20.77;9.95;;;;;;;14.42;65.58;99931.19;5059244;28;20025;-79
2022/04/23 01:38:12;;;;;;;30.70;12.45;;;;;;;14.44;65.79;99944.53;5053273;28;20025;-80
2022/04/23 01:40:38;;;;;;;24.88;10.70;;;;;;;14.44;65.81;99949.97;5053409;28;20025;-79
2022/04/23 01:43:04;;;;;;;25.33;10.27;;;;;;;14.44;66.02;99960.78;5053379;28;20036;-80
2022/04/23 01:45:30;;;;;;;18.52;10.20;;;;;;;14.44;65.89;99953.50;5052030;28;20021;-79
2022/04/23 01:47:55;;;;;;;17.88;9.48;;;;;;;14.50;66.22;99952.00;5053337;28;20371;-79
2022/04/23 01:50:21;;;;;;;26.42;9.88;;;;;;;14.49;66.38;99948.47;5052708;28;20040;-79
2022/04/23 01:52:47;;;;;;;22.42;10.35;;;;;;;14.57;65.95;99953.88;5064080;28;20559;-78
2022/04/23 01:55:13;;;;;;;22.27;8.88;;;;;;;14.61;65.50;99951.69;5072883;28;20424;-79
2022/04/23 01:57:38;;;;;;;33.15;10.85;;;;;;;14.67;65.57;99945.63;5072316;28;20024;-79
2022/04/23 02:00:06;;;;;;;29.23;9.57;;;;;;;14.66;65.72;99944.75;5073021;28;20525;-79
2022/04/23 02:02:32;;;;;;;30.27;11.40;;;;;;;14.68;65.45;99931.03;5072173;28;20060;-79
2022/04/23 02:04:58;;;;;;;20.70;9.35;;;;;;;14.68;65.10;99934.59;5073640;28;20040;-79
2022/04/23 02:07:24;;;;;;;24.48;9.75;;;;;;;14.73;65.33;99949.50;5073600;28;20086;-79
2022/04/23 02:09:49;;;;;;;30.98;10.05;;;;;;;14.69;65.09;99941.72;5073341;28;20466;-79
2022/04/23 02:12:15;;;;;;;24.88;10.30;;;;;;;14.66;65.06;99923.09;5072672;28;20031;-79
2022/04/23 02:14:40;;;;;;;30.10;11.32;;;;;;;14.66;65.30;99919.56;5065021;28;20021;-79
2022/04/23 02:17:06;;;;;;;25.02;10.13;;;;;;;14.62;65.61;99926.31;5052412;28;20021;-79
2022/04/23 02:19:32;;;;;;;18.05;9.50;;;;;;;14.66;65.70;99916.84;5051035;28;20032;-79
2022/04/23 02:21:57;;;;;;;26.80;11.45;;;;;;;14.66;65.59;99916.84;5054162;28;20017;-79
2022/04/23 02:24:23;;;;;;;19.70;9.18;;;;;;;14.66;65.33;99900.59;5052849;28;20032;-79
2022/04/23 02:26:48;;;;;;;32.83;10.07;;;;;;;14.71;65.53;99918.03;5053281;28;20386;-78
2022/04/23 02:29:14;;;;;;;38.88;10.88;;;;;;;14.73;65.62;99885.38;5051159;28;20481;-78
2022/04/23 02:31:39;;;;;;;25.25;9.95;;;;;;;14.74;65.45;99919.53;5052324;28;20096;-79
2022/04/23 02:34:05;;;;;;;25.90;10.88;;;;;;;14.77;64.97;99908.38;5052332;28;20053;-79
2022/04/23 02:36:30;;;;;;;20.27;10.02;;;;;;;14.67;65.12;99918.56;5052145;28;20036;-79
2022/04/23 02:38:55;;;;;;;28.38;10.45;;;;;;;14.72;65.34;99935.13;5052655;28;20021;-79
2022/04/23 02:41:21;;;;;;;20.33;10.40;;;;;;;14.71;65.23;99936.13;5052029;28;20021;-79
2022/04/23 02:43:46;;;;;;;33.72;15.65;;;;;;;14.74;65.43;99927.66;5052152;28;20055;-79
2022/04/23 02:46:15;;;;;;;24.48;10.15;;;;;;;14.82;64.97;99930.41;5052282;28;20025;-79
2022/04/23 02:48:41;;;;;;;33.38;9.90;;;;;;;14.84;64.48;99936.47;5054360;28;20017;-79
2022/04/23 02:51:06;;;;;;;17.27;9.57;;;;;;;14.88;64.38;99951.38;5071452;28;20035;-80
2022/04/23 02:53:32;;;;;;;18.63;9.10;;;;;;;14.89;64.61;99950.34;5072581;28;20115;-80
2022/04/23 02:55:57;;;;;;;22.50;9.23;;;;;;;14.91;64.90;99951.03;5072163;28;20092;-79
2022/04/23 02:58:27;;;;;;;22.25;9.38;;;;;;;14.94;64.53;99961.53;5072652;28;20013;-80
2022/04/23 03:00:53;;;;;;;24.40;10.15;;;;;;;14.96;64.78;99940.53;5075424;28;20036;-79
2022/04/23 03:03:19;;;;;;;26.02;10.50;;;;;;;14.94;64.89;99930.91;5076271;28;20024;-80
2022/04/23 03:05:44;;;;;;;18.05;9.75;;;;;;;14.95;65.02;99928.00;5057550;28;20035;-81
2022/04/23 03:08:12;;;;;;;27.05;9.43;;;;;;;14.84;63.96;99913.97;5055868;28;20079;-80
2022/04/23 03:10:39;;;;;;;27.98;11.57;;;;;;;14.84;64.72;99914.81;5070771;28;20017;-79
2022/04/23 03:13:06;;;;;;;21.85;10.32;;;;;;;14.87;64.24;99938.84;5059870;28;20032;-80
2022/04/23 03:15:31;;;;;;;28.52;10.95;;;;;;;14.85;64.68;99916.53;5075006;28;20378;-80
2022/04/23 03:18:10;;;;;;;29.90;10.52;;;;;;;14.86;64.61;99912.78;5072895;28;20027;-80
2022/04/23 03:20:36;;;;;;;22.77;9.50;;;;;;;14.86;65.24;99920.91;5055660;28;20044;-79
2022/04/23 03:23:03;;;;;;;27.10;9.48;;;;;;;14.88;65.01;99929.72;5055554;28;20025;-80
2022/04/23 03:25:28;;;;;;;26.52;10.43;;;;;;;14.84;64.72;99904.00;5055472;28;20024;-81
2022/04/23 03:27:55;;;;;;;28.13;9.98;;;;;;;14.85;64.57;99919.22;5055547;28;20074;-80
2022/04/23 03:30:20;;;;;;;24.95;9.32;;;;;;;14.90;64.92;99924.13;5063265;28;20020;-81
2022/04/23 03:32:47;;;;;;;24.50;9.77;;;;;;;14.95;64.13;99922.59;5059669;28;20028;-81
2022/04/23 03:35:13;;;;;;;26.02;9.07;;;;;;;14.91;63.86;99915.00;5055582;28;20053;-82
2022/04/23 03:37:39;;;;;;;21.02;9.48;;;;;;;14.91;64.24;99920.41;5055424;28;20025;-80
2022/04/23 03:40:06;;;;;;;16.95;8.95;;;;;;;14.90;64.38;99919.56;5055628;28;20024;-79
2022/04/23 03:42:32;;;;;;;24.30;9.18;;;;;;;14.92;64.51;99903.97;5056107;28;20028;-79
2022/04/23 03:44:58;;;;;;;39.95;9.35;;;;;;;14.95;63.90;99903.63;5055666;28;20029;-79
2022/04/23 03:47:23;;;;;;;30.85;9.98;;;;;;;14.91;64.04;99904.16;5055255;28;20110;-79
2022/04/23 03:49:49;;;;;;;31.38;9.70;;;;;;;14.92;64.67;99898.56;5055620;28;20463;-80
2022/04/23 03:52:14;;;;;;;46.30;10.30;;;;;;;14.95;64.76;99894.69;5054797;28;20025;-79
2022/04/23 03:54:40;;;;;;;41.67;12.70;;;;;;;14.98;64.32;99884.34;5055404;28;20107;-79
2022/04/23 03:57:06;;;;;;;24.65;10.07;;;;;;;15.03;64.13;99879.28;5054838;28;20025;-79
2022/04/23 03:59:31;;;;;;;20.58;9.32;;;;;;;15.03;63.91;99887.41;5054795;28;20029;-79
2022/04/23 04:02:02;;;;;;;26.40;10.85;;;;;;;15.11;63.99;99894.66;5054228;28;20025;-79
2022/04/23 04:04:28;;;;;;;28.48;10.77;;;;;;;15.19;64.10;99884.69;5054697;28;20049;-80
2022/04/23 04:06:53;;;;;;;27.02;10.27;;;;;;;15.23;64.00;99880.56;5073182;28;20055;-79
2022/04/23 04:09:19;;;;;;;39.85;11.35;;;;;;;15.28;63.77;99869.25;5073846;28;20390;-79
2022/04/23 04:12:02;;;;;;;25.60;10.18;;;;;;;15.29;63.39;99870.91;5073904;28;20020;-79
2022/04/23 04:14:33;;;;;;;53.22;14.30;;;;;;;15.29;63.71;99853.84;5056798;28;20021;-79
2022/04/23 04:16:59;;;;;;;32.30;13.05;;;;;;;15.40;63.50;99853.44;5052481;28;20155;-79
2022/04/23 04:19:29;;;;;;;27.08;11.70;;;;;;;15.42;63.46;99843.28;5054492;28;20528;-79
2022/04/23 04:21:57;;;;;;;94.32;17.73;;;;;;;15.46;63.39;99855.47;5054643;28;20098;-79
2022/04/23 04:24:23;;;;;;;51.50;12.52;;;;;;;15.50;63.32;99848.72;5054301;28;20054;-79
2022/04/23 04:26:49;;;;;;;39.10;11.65;;;;;;;15.57;62.90;99863.22;5052748;28;20017;-79
2022/04/23 04:29:14;;;;;;;47.55;12.55;;;;;;;15.56;62.88;99861.56;5067803;28;20519;-79
2022/04/23 04:31:49;;;;;;;88.88;15.02;;;;;;;15.62;63.04;99860.84;5068572;28;20471;-78
2022/04/23 04:34:14;;;;;;;40.88;12.05;;;;;;;15.67;63.10;99861.16;5073840;28;20120;-79
2022/04/23 04:36:40;;;;;;;53.38;12.43;;;;;;;15.74;62.71;99854.03;5073902;28;20113;-79
2022/04/23 04:39:07;;;;;;;130.90;21.10;;;;;;;15.80;63.18;99864.16;5072742;28;20039;-79
2022/04/23 04:41:33;;;;;;;90.05;16.42;;;;;;;15.88;62.47;99874.97;5060223;28;20115;-79
2022/04/23 04:43:58;;;;;;;51.33;15.25;;;;;;;15.88;62.97;99871.41;5054936;28;20593;-80
2022/04/23 04:46:23;;;;;;;49.35;15.48;;;;;;;15.95;62.75;99873.25;5069655;28;20037;-80
2022/04/23 04:48:51;;;;;;;33.55;12.35;;;;;;;15.97;62.54;99873.91;5078688;28;20028;-80
2022/04/23 04:51:17;;;;;;;42.50;11.38;;;;;;;15.95;62.15;99859.69;5074247;28;20028;-80
2022/04/23 04:53:42;;;;;;;45.15;12.55;;;;;;;16.05;61.33;99863.03;5074529;28;20100;-81
2022/04/23 04:56:08;;;;;;;39.88;11.48;;;;;;;16.11;61.37;99873.16;5067209;28;20054;-78
2022/04/23 04:58:33;;;;;;;27.60;11.18;;;;;;;16.07;61.32;99871.81;5053706;28;20422;-79
2022/04/23 05:00:59;;;;;;;37.42;10.23;;;;;;;16.11;61.14;99877.72;5053952;28;20029;-78
2022/04/23 05:03:25;;;;;;;70.18;13.05;;;;;;;16.08;61.09;99878.94;5054205;28;20029;-79
2022/04/23 05:05:52;;;;;;;42.30;10.90;;;;;;;16.12;61.23;99874.81;5054171;28;20024;-81
2022/04/23 05:08:17;;;;;;;49.63;10.65;;;;;;;16.08;62.05;99873.50;5053902;28;20017;-81
2022/04/23 05:10:43;;;;;;;45.67;13.95;;;;;;;16.07;61.91;99860.97;5053987;28;20043;-81
2022/04/23 05:13:08;;;;;;;21.80;11.32;;;;;;;15.95;61.34;99862.38;5053442;28;20036;-81
2022/04/23 05:15:35;;;;;;;34.70;11.18;;;;;;;15.81;61.28;99865.84;5053348;28;20047;-80
2022/04/23 05:18:00;;;;;;;42.55;11.55;;;;;;;15.84;61.23;99870.91;5053534;28;20083;-80
2022/04/23 05:20:26;;;;;;;52.60;14.07;;;;;;;15.77;61.32;99864.53;5053379;28;20479;-80
2022/04/23 05:22:51;;;;;;;55.20;14.13;;;;;;;15.81;62.02;99865.84;5052534;28;20043;-80
2022/04/23 05:25:17;;;;;;;66.82;12.30;;;;;;;15.78;62.41;99868.91;5063428;28;20157;-80
2022/04/23 05:27:42;;;;;;;53.92;13.68;;;;;;;15.72;62.18;99873.16;5073172;28;20028;-79
2022/04/23 05:30:08;;;;;;;40.25;12.45;;;;;;;15.82;62.28;99862.09;5072916;28;20028;-80
2022/04/23 05:32:35;;;;;;;54.03;14.07;;;;;;;15.75;62.46;99855.69;5071434;28;20189;-80
2022/04/23 05:35:00;;;;;;;27.05;10.85;;;;;;;15.81;62.59;99860.41;5073379;28;20049;-78
2022/04/23 05:37:25;;;;;;;30.15;11.30;;;;;;;15.86;62.23;99858.03;5073146;28;20546;-80
2022/04/23 05:39:51;;;;;;;33.22;10.38;;;;;;;15.85;61.81;99850.91;5067114;28;20021;-80
2022/04/23 05:42:16;;;;;;;29.42;12.20;;;;;;;15.82;62.06;99845.84;5058775;28;20060;-80
2022/04/23 05:44:42;;;;;;;33.45;10.65;;;;;;;15.84;62.35;99843.78;5062548;28;20031;-81
2022/04/23 05:47:07;;;;;;;34.25;12.20;;;;;;;15.92;62.21;99856.47;5053052;28;20028;-80
2022/04/23 05:49:32;;;;;;;22.05;10.02;;;;;;;15.93;61.78;99853.56;5052759;28;20056;-79
2022/04/23 05:51:58;;;;;;;41.85;13.07;;;;;;;15.90;61.63;99859.34;5053100;28;20021;-78
2022/04/23 05:54:23;;;;;;;27.02;12.27;;;;;;;16.01;61.95;99853.53;5051408;28;20071;-78
2022/04/23 05:56:49;;;;;;;51.65;13.18;;;;;;;16.01;61.59;99844.56;5057824;28;20028;-80
2022/04/23 05:59:14;;;;;;;55.38;12.32;;;;;;;16.09;61.34;99839.06;5072928;28;20021;-79
2022/04/23 06:01:39;;;;;;;57.70;15.32;;;;;;;16.09;61.49;99834.50;5070791;28;20446;-79
2022/04/23 06:04:05;;;;;;;65.95;15.13;;;;;;;16.10;61.96;99832.63;5070537;28;20050;-81
2022/04/23 06:06:30;;;;;;;30.40;11.98;;;;;;;16.15;62.20;99831.06;5072478;28;20115;-81
2022/04/23 06:08:57;;;;;;;30.77;12.13;;;;;;;16.24;61.37;99842.69;5059963;28;20374;-79
2022/04/23 06:11:22;;;;;;;31.70;12.25;;;;;;;16.22;61.11;99875.44;5052356;28;20473;-79
2022/04/23 06:13:47;;;;;;;32.40;13.98;;;;;;;16.33;61.36;99888.59;5052431;28;20052;-79
2022/04/23 06:16:13;;;;;;;27.75;14.57;;;;;;;16.42;61.25;99891.28;5053518;28;20039;-82
2022/04/23 06:18:38;;;;;;;46.47;14.77;;;;;;;16.39;61.27;99864.50;5054105;28;20063;-81
2022/04/23 06:21:04;;;;;;;49.60;15.25;;;;;;;16.55;61.29;99888.81;5057992;28;20021;-78
2022/04/23 06:23:29;;;;;;;42.33;16.25;;;;;;;16.61;60.96;99885.38;5075360;28;20028;-77
2022/04/23 06:25:55;;;;;;;26.13;13.70;;;;;;;16.71;60.93;99870.53;5061284;28;20033;-79
2022/04/23 06:28:20;;;;;;;41.67;14.45;;;;;;;16.79;60.61;99867.75;5052186;28;20040;-80
2022/04/23 06:30:46;;;;;;;47.72;13.90;;;;;;;16.90;60.31;99869.19;5054278;28;20055;-80
2022/04/23 06:33:12;;;;;;;51.95;13.93;;;;;;;16.92;59.84;99861.69;5070063;28;20032;-79
2022/04/23 06:35:37;;;;;;;46.40;13.25;;;;;;;17.10;59.49;99885.78;5070719;28;20415;-79
2022/04/23 06:38:02;;;;;;;39.65;15.48;;;;;;;17.21;59.21;99885.38;5069571;28;20035;-79
2022/04/23 06:40:28;;;;;;;42.47;17.92;;;;;;;17.32;59.37;99880.31;5073237;28;20547;-80
2022/04/23 06:42:53;;;;;;;43.55;19.13;;;;;;;17.36;58.81;99878.91;5074402;28;20033;-79
2022/04/23 06:45:19;;;;;;;69.97;21.42;;;;;;;17.46;58.65;99889.50;5074276;28;20145;-78
2022/04/23 06:47:45;;;;;;;55.17;24.63;;;;;;;17.57;58.65;99870.03;5072855;28;20028;-79
2022/04/23 06:50:10;;;;;;;36.17;18.50;;;;;;;17.71;58.47;99866.47;5061394;28;20033;-79
2022/04/23 06:52:36;;;;;;;44.08;17.52;;;;;;;17.73;57.73;99847.25;5060357;28;20029;-78
2022/04/23 06:55:03;;;;;;;48.00;17.63;;;;;;;17.82;57.23;99838.78;5055448;28;20029;-77
2022/04/23 06:57:29;;;;;;;42.80;15.98;;;;;;;18.02;57.21;99860.78;5052206;28;20028;-80
2022/04/23 06:59:54;;;;;;;36.28;15.73;;;;;;;18.07;56.67;99855.59;5051729;28;20025;-76
2022/04/23 07:02:21;;;;;;;34.78;14.25;;;;;;;18.09;56.23;99845.38;5051394;28;20723;-78
2022/04/23 07:04:46;;;;;;;27.60;13.15;;;;;;;18.24;56.01;99840.72;5051717;28;20021;-78
2022/04/23 07:07:12;;;;;;;44.25;13.70;;;;;;;18.27;56.12;99843.06;5051499;28;20027;-79
2022/04/23 07:09:38;;;;;;;19.65;10.90;;;;;;;18.38;55.91;99850.72;5051338;28;20447;-80
2022/04/23 07:12:05;;;;;;;27.30;11.77;;;;;;;18.48;55.53;99844.94;5052375;28;20021;-81
2022/04/23 07:14:30;;;;;;;22.23;9.90;;;;;;;18.56;55.15;99849.47;5051302;28;20025;-76
2022/04/23 07:16:57;;;;;;;25.75;10.02;;;;;;;18.61;55.56;99842.38;5057606;28;20097;-75
2022/04/23 07:19:22;;;;;;;33.05;11.55;;;;;;;18.64;55.15;99832.97;5060423;28;20063;-76
2022/04/23 07:21:48;;;;;;;22.70;11.25;;;;;;;18.78;55.09;99838.34;5052141;28;20053;-76
2022/04/23 07:24:13;;;;;;;25.90;8.82;;;;;;;18.80;53.95;99832.72;5070884;28;20033;-78
2022/04/23 07:26:40;;;;;;;25.10;8.32;;;;;;;18.89;53.76;99831.53;5062763;28;20031;-84
2022/04/23 07:29:08;;;;;;;14.90;8.63;;;;;;;19.03;53.60;99833.31;5058973;28;20025;-81
2022/04/23 07:31:36;;;;;;;28.33;9.90;;;;;;;19.11;53.97;99837.78;5052342;28;20534;-80
2022/04/23 07:39:30;;;;;;;41.40;9.38;;;;;;;19.43;52.28;99848.06;5070918;28;20093;-76
2022/04/23 07:41:55;;;;;;;42.63;10.45;;;;;;;19.53;52.22;99838.50;5070572;28;20469;-73
2022/04/23 07:44:25;;;;;;;12.18;7.25;;;;;;;19.63;51.57;99831.81;5064673;28;20040;-78
2022/04/23 07:46:50;;;;;;;15.23;6.50;;;;;;;19.74;51.73;99825.78;5054333;28;20894;-77
2022/04/23 07:49:16;;;;;;;30.50;10.82;;;;;;;19.81;51.44;99821.22;5067654;28;20028;-79
2022/04/23 07:51:43;;;;;;;22.15;7.57;;;;;;;19.97;50.85;99842.66;5059501;28;20025;-75
2022/04/23 07:54:09;;;;;;;24.88;7.30;;;;;;;20.07;50.77;99840.38;5064148;28;20439;-76
2022/04/23 07:56:35;;;;;;;26.58;9.73;;;;;;;20.09;50.17;99836.41;5058885;28;20029;-77
2022/04/23 07:59:02;;;;;;;22.17;8.70;;;;;;;20.07;50.26;99832.19;5070503;28;20086;-76
2022/04/23 08:01:28;;;;;;;19.08;9.77;;;;;;;20.20;51.67;99845.91;5074378;28;20024;-75
2022/04/23 08:03:53;;;;;;;26.77;10.07;;;;;;;20.00;51.41;99847.72;5073417;28;20027;-75
2022/04/23 08:06:19;;;;;;;21.30;10.10;;;;;;;19.91;51.37;99855.25;5073429;28;20367;-75
2022/04/23 08:08:44;;;;;;;19.38;9.23;;;;;;;19.74;51.59;99863.97;5073260;28;20531;-78
2022/04/23 08:11:10;;;;;;;22.23;9.93;;;;;;;19.70;52.35;99862.69;5073237;28;20525;-75
2022/04/23 08:13:36;;;;;;;25.55;9.40;;;;;;;19.78;52.12;99848.91;5060123;28;20048;-78
2022/04/23 08:16:02;;;;;;;32.75;9.02;;;;;;;19.92;52.08;99856.09;5063119;28;20033;-75
2022/04/23 08:18:27;;;;;;;37.00;8.93;;;;;;;20.00;51.64;99837.63;5067438;28;20104;-77
2022/04/23 08:20:53;;;;;;;32.95;9.18;;;;;;;20.15;51.38;99850.31;5057209;28;20031;-77
2022/04/23 08:23:19;;;;;;;22.02;9.07;;;;;;;20.11;51.53;99844.41;5060666;28;20431;-77
2022/04/23 08:25:46;;;;;;;14.95;7.80;;;;;;;20.15;50.14;99850.31;5072265;28;20092;-77
2022/04/23 08:30:59;;;;;;;26.13;8.82;;;;;;;20.16;50.92;99847.34;5042171;28;20045;-78
2022/04/23 08:33:57;;;;;;;25.02;8.07;;;;;;;20.29;50.71;99844.69;5051145;28;20017;-77
2022/04/23 08:36:10;;;;;;;22.45;7.93;;;;;;;20.49;49.42;99850.19;5061143;28;20067;-76
2022/04/23 08:38:35;;;;;;;27.85;9.75;;;;;;;20.57;49.21;99839.06;5069060;28;20059;-78
2022/04/23 08:41:04;;;;;;;17.38;7.65;;;;;;;20.66;49.26;99854.22;5055050;28;20098;-81
2022/04/23 08:43:31;;;;;;;25.15;8.15;;;;;;;20.71;49.05;99846.22;5056729;28;20032;-79
2022/04/23 08:45:56;;;;;;;15.93;8.43;;;;;;;20.74;49.14;99842.22;5060139;28;20040;-79
2022/04/23 08:48:27;;;;;;;35.40;8.25;;;;;;;20.76;49.14;99837.41;5053110;28;20025;-81
2022/04/23 08:50:58;;;;;;;25.25;8.40;;;;;;;20.96;49.33;99833.63;5071123;28;20058;-81
2022/04/23 08:53:30;;;;;;;17.52;7.63;;;;;;;21.02;48.25;99829.19;5054502;28;20120;-80
2022/04/23 08:55:56;;;;;;;24.75;8.75;;;;;;;21.02;48.03;99823.72;5068894;28;20037;-83
2022/04/23 08:58:23;;;;;;;15.55;7.13;;;;;;;21.13;47.87;99831.31;5065761;28;20084;-77
2022/04/23 09:00:48;;;;;;;35.55;7.55;;;;;;;21.19;47.98;99833.22;5053134;28;20029;-79
2022/04/23 09:03:17;;;;;;;20.27;7.68;;;;;;;21.40;48.37;99824.75;5055519;28;20032;-76
2022/04/23 09:05:43;;;;;;;24.83;7.70;;;;;;;21.55;48.08;99833.56;5062316;28;20040;-78
2022/04/23 09:08:09;;;;;;;25.08;8.75;;;;;;;21.59;48.13;99818.38;5066862;28;20034;-77
2022/04/23 09:10:45;;;;;;;21.00;8.00;;;;;;;21.61;47.37;99831.84;5059390;28;20487;-78
2022/04/23 09:13:11;;;;;;;25.38;7.93;;;;;;;21.44;47.60;99841.56;5053050;28;20029;-81
2022/04/23 09:24:09;;;;;;;16.42;7.53;;;;;;;20.76;48.71;99860.13;5052607;28;20040;-77
2022/04/23 09:26:34;;;;;;;19.90;8.38;;;;;;;20.72;48.94;99850.66;5052624;28;20098;-78
2022/04/23 09:29:12;;;;;;;26.30;8.18;;;;;;;20.71;49.85;99851.69;5052522;28;20078;-80
2022/04/23 09:31:38;;;;;;;16.98;8.30;;;;;;;20.69;49.78;99850.22;5052152;28;20032;-78
2022/04/23 09:34:17;;;;;;;35.47;10.15;;;;;;;20.59;50.69;99848.75;5052055;28;20053;-78
2022/04/23 09:36:50;;;;;;;18.48;8.35;;;;;;;20.71;50.03;99856.31;5063110;28;20112;-77
2022/04/23 09:39:28;;;;;;;28.45;10.38;;;;;;;20.78;50.38;99851.69;5071963;28;20028;-78
2022/04/23 09:42:10;;;;;;;25.08;7.22;;;;;;;20.86;50.10;99848.75;5065715;28;20028;-75
2022/04/23 09:44:36;;;;;;;43.60;10.05;;;;;;;20.97;50.02;99845.41;5053711;28;20028;-75
2022/04/23 09:47:01;;;;;;;24.63;9.35;;;;;;;21.17;49.95;99844.38;5051896;28;20098;-78
2022/04/23 09:49:27;;;;;;;36.38;9.75;;;;;;;21.13;49.14;99834.88;5051428;28;20025;-76
2022/04/23 09:52:04;;;;;;;34.47;8.70;;;;;;;21.13;48.96;99831.31;5062157;28;20078;-79
2022/04/23 09:54:31;;;;;;;43.45;10.68;;;;;;;21.13;49.79;99834.03;5069268;28;20123;-77
2022/04/23 09:56:57;;;;;;;30.13;9.65;;;;;;;21.06;49.64;99839.50;5069220;28;20089;-82
2022/04/23 09:59:23;;;;;;;29.30;7.95;;;;;;;21.11;49.37;99827.97;5036294;28;20253;-78
2022/04/23 10:01:50;;;;;;;33.35;8.27;;;;;;;21.28;49.66;99831.09;5045535;28;20024;-77
2022/04/23 10:04:42;;;;;;;24.88;8.38;;;;;;;21.37;49.13;99830.66;5056452;28;20116;-80
2022/04/23 10:07:09;;;;;;;22.10;7.68;;;;;;;21.50;48.73;99833.34;5036381;28;20028;-76
2022/04/23 10:09:39;;;;;;;34.33;9.50;;;;;;;21.70;48.33;99834.16;5061785;28;20024;-76
2022/04/23 10:12:08;;;;;;;20.58;9.02;;;;;;;21.67;47.84;99829.09;5051397;28;20025;-77
2022/04/23 10:14:41;;;;;;;22.20;8.38;;;;;;;21.70;47.07;99830.56;5051192;28;20031;-75
2022/04/23 10:17:09;;;;;;;26.75;7.70;;;;;;;21.61;47.72;99832.69;5051016;28;20552;-76
2022/04/23 10:19:35;;;;;;;17.63;8.35;;;;;;;21.76;48.09;99828.84;5050846;28;20074;-76
2022/04/23 10:22:21;;;;;;;28.50;9.90;;;;;;;21.82;47.45;99834.31;5051126;28;20090;-76
2022/04/23 10:24:55;;;;;;;32.15;8.25;;;;;;;21.87;46.92;99830.91;5050960;28;20025;-76
2022/04/23 10:27:25;;;;;;;41.78;9.35;;;;;;;21.97;46.86;99828.59;5051027;28;20029;-76
2022/04/23 10:29:54;;;;;;;39.60;10.63;;;;;;;22.17;46.76;99832.03;5050986;28;20021;-75
2022/04/23 10:32:20;;;;;;;26.85;8.02;;;;;;;22.31;46.69;99821.88;5049649;28;20029;-76
2022/04/23 10:34:46;;;;;;;22.05;7.50;;;;;;;22.50;45.99;99824.50;5054817;28;20044;-74
2022/04/23 10:37:22;;;;;;;19.23;7.22;;;;;;;22.64;46.39;99823.31;5064712;28;20067;-78
2022/04/23 10:39:51;;;;;;;15.25;6.65;;;;;;;22.74;45.94;99818.22;5058566;28;20103;-76
2022/04/23 10:42:18;;;;;;;30.67;8.82;;;;;;;22.99;45.34;99831.09;5043733;28;20024;-76
2022/04/23 10:44:45;;;;;;;12.45;5.82;;;;;;;23.15;44.68;99830.50;5060541;28;20025;-78
2022/04/23 10:47:32;;;;;;;17.98;7.00;;;;;;;23.32;44.25;99831.63;5051287;28;20071;-76
2022/04/23 10:50:21;;;;;;;15.48;6.97;;;;;;;23.34;44.12;99829.47;5057943;28;20025;-76
2022/04/23 10:52:50;;;;;;;24.63;7.70;;;;;;;23.41;43.54;99829.44;5070558;28;20102;-78
2022/04/23 10:55:16;;;;;;;44.08;7.63;;;;;;;23.55;43.00;99829.06;5070657;28;20037;-76
2022/04/23 10:57:55;;;;;;;23.33;7.45;;;;;;;23.47;43.00;99818.41;5070524;28;20103;-78
2022/04/23 11:00:22;;;;;;;21.17;7.53;;;;;;;23.72;43.46;99818.31;5067801;28;20451;-79
2022/04/23 11:02:54;;;;;;;39.03;8.60;;;;;;;24.00;42.01;99817.78;5051215;28;20025;-76
2022/04/23 11:13:57;;;;;;;;;;;;;;;24.17;40.55;99811.41;5071269;28;20440;-77
2022/04/23 11:16:30;;;;;;;36.15;6.63;;;;;;;23.95;40.99;99812.09;5050870;28;19916;-76
2022/04/23 11:19:07;;;;;;;33.92;7.95;;;;;;;23.94;42.19;99808.56;5049786;28;20039;-76
2022/04/23 11:21:33;;;;;;;14.68;5.53;;;;;;;24.08;41.61;99809.19;5052050;28;20102;-75
2022/04/23 11:24:01;;;;;;;11.82;5.15;;;;;;;23.89;41.30;99804.78;5055639;28;20470;-76
2022/04/23 11:26:46;;;;;;;18.48;7.13;;;;;;;23.87;41.08;99804.19;5054751;28;20017;-75
2022/04/23 11:29:13;;;;;;;32.88;6.18;;;;;;;23.46;41.64;99805.72;5064891;28;20020;-73
2022/04/23 11:31:38;;;;;;;22.23;6.57;;;;;;;23.65;41.92;99804.66;5056024;28;20028;-77
2022/04/23 11:34:05;;;;;;;15.00;5.65;;;;;;;23.75;40.84;99804.13;5066761;28;20048;-77
2022/04/23 11:36:40;;;;;;;21.83;5.93;;;;;;;23.85;41.24;99793.47;5053404;28;20033;-78
2022/04/23 11:39:08;;;;;;;18.33;6.38;;;;;;;23.70;40.05;99802.06;5065491;28;20075;-77
2022/04/23 11:41:51;;;;;;;19.98;6.35;;;;;;;23.49;41.19;99805.28;5054634;28;20114;-80
2022/04/23 11:44:45;;;;;;;15.07;5.95;;;;;;;23.72;40.94;99821.06;5055857;28;20399;-83
2022/04/23 11:47:08;;;;;;;23.45;7.20;;;;;;;23.69;41.34;99805.06;5059882;28;20027;-83
2022/04/23 11:49:33;;;;;;;17.38;5.50;;;;;;;23.83;41.00;99812.91;5076607;28;20036;-84